This is the latest recevied weather packets stored in our database for station/object W1BKW. If no packets are shown the sender has not sent any weather packets the latest 10 day(s).
| Time | Temp. | Humidity | Pressure | Rain* | Wind** | Luminosity | Snow |
|---|---|---|---|---|---|---|---|
| 1777746035 | 5.56° C | 93% | 1011.6 hPa | 0 mm | - | 39 W/m² | - |
| 1777745134 | 5.56° C | 93% | 1011.5 hPa | 0 mm | - | 36 W/m² | - |
| 1777744233 | 5.56° C | 93% | 1011.6 hPa | 0 mm | - | 33 W/m² | - |
| 1777743330 | 5.56° C | 92% | 1011.5 hPa | 0 mm | - | 52 W/m² | - |
| 1777742427 | 5.56° C | 89% | 1011.4 hPa | 0 mm | - | 42 W/m² | - |
| 1777741523 | 5.56° C | 89% | 1011.5 hPa | 0 mm | - | 35 W/m² | - |
| 1777740620 | 5.56° C | 86% | 1011.8 hPa | 0 mm | - | 41 W/m² | - |
| 1777739719 | 5.56° C | 84% | 1011.7 hPa | 0 mm | - | 42 W/m² | - |
| 1777738815 | 6.11° C | 83% | 1011.8 hPa | 0 mm | - | 49 W/m² | - |
| 1777737912 | 6.11° C | 84% | 1011.8 hPa | 0 mm | - | 48 W/m² | - |
| 1777737011 | 6.11° C | 85% | 1012.1 hPa | 0 mm | - | 42 W/m² | - |
| 1777736106 | 5.56° C | 85% | 1012.3 hPa | 0 mm | - | 48 W/m² | - |
| 1777735204 | 6.11° C | 84% | 1012.2 hPa | 0 mm | - | 70 W/m² | - |
| 1777734301 | 6.11° C | 86% | 1012.1 hPa | 0 mm | - | 72 W/m² | - |
| 1777733396 | 6.11° C | 85% | 1012.5 hPa | 0 mm | - | 66 W/m² | - |
| 1777732492 | 6.67° C | 82% | 1012.7 hPa | 0 mm | - | 49 W/m² | - |
| 1777731589 | 6.67° C | 81% | 1012.5 hPa | 0 mm | - | 51 W/m² | - |
| 1777730689 | 6.67° C | 81% | 1012.8 hPa | 0 mm | - | 39 W/m² | - |
| 1777729783 | 6.67° C | 81% | 1013.1 hPa | 0 mm | - | 51 W/m² | - |
| 1777728879 | 6.11° C | 82% | 1012.5 hPa | 0 mm | - | 65 W/m² | - |
| 1777727977 | 6.11° C | 80% | 1012.7 hPa | 0 mm | - | 53 W/m² | - |
| 1777727074 | 6.11° C | 79% | 1012.8 hPa | 0 mm | - | 49 W/m² | - |
| 1777726171 | 6.11° C | 78% | 1012.9 hPa | 0 mm | - | 40 W/m² | - |
| 1777725268 | 6.11° C | 73% | 1012.9 hPa | 0 mm | - | 39 W/m² | - |
| 1777724366 | 5° C | 81% | 1012.7 hPa | 0 mm | - | 90 W/m² | - |
* Rain latest hour (hover to see other rain measurements)
** Current wind speed in m/s (hover to see current wind gust speed)